Windsor, Kentucky
Current Conditions -  °F | °C
As of 7:15 PM on Saturday 25 Oct 2014 (Local Time) from KSME Reporting Station
Clear Clear  
Wind Chill: 61°   Ceiling: Unl
Heat Index: 61°   Visibility: 10mi
Dew Point: 54°   Wind: 0mph
Humidity: 77%   Direction: NA
Pressure: 30.02"   Gusts: NA
Location:  37.13°N, 84.91°W
Report Text: KSME 252315Z AUTO 00000KT 10SM CLR 16/12 A3002 RMK AO2
Loading
Personal Weather Stations






























Interactive Weather Map
Tropical Storm Tracking
New forecast layout! Learn more

10-Day Weather Forecast

Advertisements
Track Severe Weather on mobile